createdAt,value
2018-11-28T00:01:39.369Z,6.36
2018-11-28T00:07:21.967Z,6.34
2018-11-28T00:12:52.902Z,6.31
2018-11-28T00:15:40.662Z,6.47
2018-11-28T00:18:26.393Z,6.45
2018-11-28T00:21:05.282Z,6.45
2018-11-28T00:23:34.141Z,6.33
2018-11-28T00:26:05.409Z,6.36
2018-11-28T00:28:34.273Z,6.40
2018-11-28T00:31:03.205Z,6.40
2018-11-28T00:33:32.512Z,6.35
2018-11-28T00:36:03.172Z,6.28
2018-11-28T00:38:32.056Z,6.27
2018-11-28T00:41:01.357Z,6.30
2018-11-28T00:43:30.283Z,6.39
2018-11-28T00:45:59.135Z,6.34
2018-11-28T00:48:28.387Z,6.32
2018-11-28T00:50:57.236Z,6.35
2018-11-28T00:53:26.092Z,6.36
2018-11-28T00:55:55.452Z,6.42
2018-11-28T00:58:24.289Z,6.45
2018-11-28T01:00:53.628Z,6.50
2018-11-28T01:03:22.475Z,6.47
2018-11-28T01:05:57.415Z,6.43
2018-11-28T01:08:26.247Z,6.46
2018-11-28T01:11:05.883Z,6.43
2018-11-28T01:13:35.240Z,6.46
2018-11-28T01:16:07.108Z,6.45
2018-11-28T01:18:35.922Z,6.49
2018-11-28T01:21:04.848Z,6.48
2018-11-28T01:23:37.360Z,6.51
2018-11-28T01:26:06.799Z,6.51
2018-11-28T01:28:35.601Z,6.49
2018-11-28T01:31:15.252Z,6.47
2018-11-28T01:33:44.446Z,6.47
2018-11-28T01:36:13.273Z,6.39
2018-11-28T01:38:42.103Z,6.36
2018-11-28T01:41:11.304Z,6.34
2018-11-28T01:43:40.236Z,6.35
2018-11-28T01:46:09.124Z,6.33
2018-11-28T01:48:38.399Z,6.32
2018-11-28T01:51:07.353Z,6.26
2018-11-28T01:53:36.172Z,6.17
2018-11-28T01:56:07.564Z,6.14
2018-11-28T01:58:36.468Z,6.09
2018-11-28T02:01:10.750Z,6.09
2018-11-28T02:03:39.905Z,6.10
2018-11-28T02:06:17.508Z,5.95
2018-11-28T02:08:46.735Z,5.83
2018-11-28T02:11:15.606Z,5.76
2018-11-28T02:13:44.656Z,5.76
2018-11-28T02:16:13.650Z,5.75
2018-11-28T02:18:42.434Z,5.69
2018-11-28T02:21:11.762Z,5.73
2018-11-28T02:23:40.621Z,5.65
2018-11-28T02:26:09.492Z,5.62
2018-11-28T02:28:38.830Z,5.60
2018-11-28T02:31:07.678Z,5.61
2018-11-28T02:33:36.535Z,5.60
2018-11-28T02:36:07.186Z,5.62
2018-11-28T02:38:39.712Z,5.59
2018-11-28T02:41:08.977Z,5.59
2018-11-28T02:43:38.355Z,5.60
2018-11-28T02:46:18.235Z,5.59
2018-11-28T02:48:51.770Z,5.58
2018-11-28T02:51:20.867Z,5.56
2018-11-28T02:53:50.220Z,5.57
2018-11-28T02:56:21.993Z,5.52
2018-11-28T02:58:50.943Z,5.53
2018-11-28T03:01:21.104Z,5.48
2018-11-28T03:03:50.565Z,5.44
2018-11-28T03:06:25.328Z,5.41
2018-11-28T03:08:54.533Z,5.41
2018-11-28T03:11:30.329Z,5.39
2018-11-28T03:13:59.272Z,5.36
2018-11-28T03:16:28.152Z,5.34
2018-11-28T03:18:56.965Z,5.34
2018-11-28T03:21:25.829Z,5.32
2018-11-28T03:23:55.052Z,5.34
2018-11-28T03:26:23.973Z,5.32
2018-11-28T03:28:52.810Z,5.31
2018-11-28T03:31:23.072Z,5.32
2018-11-28T03:33:51.921Z,5.34
2018-11-28T03:36:20.806Z,5.36
2018-11-28T03:38:49.958Z,5.34
2018-11-28T03:41:18.922Z,5.33
2018-11-28T03:43:51.329Z,5.40
2018-11-28T03:46:20.647Z,5.37
2018-11-28T03:48:49.442Z,5.33
2018-11-28T03:51:20.277Z,5.45
2018-11-28T03:53:49.524Z,5.35
2018-11-28T03:56:18.375Z,5.27
2018-11-28T03:58:50.977Z,5.36
2018-11-28T04:01:20.154Z,5.42
2018-11-28T04:03:48.989Z,5.40
2018-11-28T04:06:17.825Z,5.43
2018-11-28T04:08:46.996Z,5.49
2018-11-28T04:11:15.838Z,5.54
2018-11-28T04:13:44.636Z,5.50
2018-11-28T04:16:14.167Z,5.54
2018-11-28T04:18:43.035Z,5.51
2018-11-28T04:21:11.905Z,5.56
2018-11-28T04:23:41.185Z,5.53
2018-11-28T04:26:10.045Z,5.57
2018-11-28T04:28:38.907Z,5.58
2018-11-28T04:31:08.286Z,5.63
2018-11-28T04:33:37.175Z,5.60
2018-11-28T04:38:47.015Z,5.60
2018-11-28T04:41:15.875Z,5.62
2018-11-28T04:43:46.140Z,5.55
2018-11-28T04:46:17.368Z,5.55
2018-11-28T04:48:46.259Z,5.50
2018-11-28T04:51:15.124Z,5.48
2018-11-28T04:53:45.458Z,5.60
2018-11-28T04:56:14.315Z,5.64
2018-11-28T04:58:45.217Z,5.52
2018-11-28T05:01:14.361Z,5.50
2018-11-28T05:03:48.483Z,5.44
2018-11-28T05:11:03.585Z,5.44
2018-11-28T05:13:39.100Z,5.42
2018-11-28T05:16:07.942Z,5.48
2018-11-28T05:18:38.572Z,5.48
2018-11-28T05:21:07.763Z,5.45
2018-11-28T05:23:36.639Z,5.46
2018-11-28T05:26:06.590Z,5.46
2018-11-28T05:28:35.924Z,5.43
2018-11-28T05:31:04.799Z,5.43
2018-11-28T05:33:33.649Z,5.43
2018-11-28T05:36:04.672Z,5.42
2018-11-28T05:38:33.545Z,5.41
2018-11-28T05:41:02.467Z,5.41
2018-11-28T05:43:32.301Z,5.52
2018-11-28T05:46:01.777Z,5.41
2018-11-28T05:48:36.636Z,5.42
2018-11-28T05:51:05.910Z,5.41
2018-11-28T05:53:40.073Z,5.44
2018-11-28T05:56:08.911Z,5.48
2018-11-28T05:58:38.186Z,5.51
2018-11-28T06:01:07.154Z,5.37
2018-11-28T06:03:35.989Z,5.33
2018-11-28T06:06:07.297Z,5.27
2018-11-28T06:08:36.136Z,5.38
2018-11-28T06:11:05.418Z,5.40
2018-11-28T06:13:34.687Z,5.48
2018-11-28T06:16:05.065Z,5.51
2018-11-28T06:18:37.427Z,5.47
2018-11-28T06:21:06.856Z,5.41
2018-11-28T06:23:35.771Z,5.38
2018-11-28T06:26:06.360Z,5.48
2018-11-28T06:28:35.806Z,5.32
2018-11-28T06:31:05.488Z,5.29
2018-11-28T06:33:34.689Z,5.33
2018-11-28T06:36:07.053Z,5.37
2018-11-28T06:39:38.134Z,5.35
2018-11-28T06:42:08.566Z,5.43
2018-11-28T06:44:37.198Z,5.35
2018-11-28T06:47:06.887Z,5.32
2018-11-28T06:49:36.173Z,5.25
2018-11-28T06:52:05.783Z,5.29
2018-11-28T06:54:40.570Z,5.35
2018-11-28T06:57:09.914Z,5.38
2018-11-28T06:59:38.815Z,5.43
2018-11-28T07:02:09.057Z,5.46
2018-11-28T07:04:38.466Z,5.51
2018-11-28T07:07:07.655Z,5.47
2018-11-28T07:09:36.684Z,5.46
2018-11-28T07:12:06.669Z,5.41
2018-11-28T07:14:35.680Z,5.45
2018-11-28T07:17:05.225Z,5.44
2018-11-28T07:19:40.521Z,5.61
2018-11-28T07:22:09.700Z,5.52
2018-11-28T07:24:40.333Z,5.50
2018-11-28T07:27:09.584Z,5.38
2018-11-28T07:29:42.374Z,5.42
2018-11-28T07:32:11.787Z,5.43
2018-11-28T07:34:40.679Z,5.44
2018-11-28T07:37:09.787Z,5.52
2018-11-28T07:39:42.963Z,5.57
2018-11-28T07:42:11.891Z,5.60
2018-11-28T07:44:41.028Z,5.63
2018-11-28T07:47:10.049Z,5.65
2018-11-28T07:49:42.631Z,5.64
2018-11-28T07:52:11.576Z,5.61
2018-11-28T07:54:40.979Z,5.70
2018-11-28T07:57:15.457Z,5.77
2018-11-28T07:59:45.056Z,5.74
2018-11-28T08:05:20.547Z,5.89
2018-11-28T08:07:49.963Z,5.87
2018-11-28T08:10:26.862Z,5.84
2018-11-28T08:15:48.954Z,5.86
2018-11-28T08:18:18.498Z,5.86
2018-11-28T08:20:57.539Z,5.67
2018-11-28T08:23:26.537Z,5.67
2018-11-28T08:25:55.533Z,5.77
2018-11-28T08:28:24.456Z,5.90
2018-11-28T08:30:53.744Z,5.94
2018-11-28T08:33:23.812Z,5.85
2018-11-28T08:35:51.591Z,5.82
2018-11-28T08:38:20.699Z,5.95
2018-11-28T08:40:49.626Z,5.95
2018-11-28T08:43:18.761Z,6.00
2018-11-28T08:45:47.665Z,6.05
2018-11-28T08:48:19.241Z,6.10
2018-11-28T08:51:08.197Z,6.23
2018-11-28T08:53:37.103Z,6.26
2018-11-28T08:56:07.759Z,6.31
2018-11-28T08:58:36.617Z,6.40
2018-11-28T09:01:05.822Z,6.39
2018-11-28T09:03:39.861Z,6.54
2018-11-28T09:06:08.735Z,6.53
2018-11-28T09:08:49.006Z,6.62
2018-11-28T09:13:51.479Z,6.69
2018-11-28T09:16:21.424Z,6.64
2018-11-28T09:18:50.921Z,6.53
2018-11-28T09:21:26.040Z,6.53
2018-11-28T09:23:55.342Z,6.60
2018-11-28T09:26:26.741Z,6.52
2018-11-28T09:28:55.685Z,6.48
2018-11-28T09:31:24.845Z,6.58
2018-11-28T09:33:53.773Z,6.54
2018-11-28T09:36:29.163Z,6.73
2018-11-28T09:38:59.356Z,6.89
2018-11-28T09:41:28.277Z,7.03
2018-11-28T09:43:57.200Z,7.10
2018-11-28T09:46:26.367Z,7.24
2018-11-28T09:48:55.387Z,7.37
2018-11-28T09:51:24.432Z,7.43
2018-11-28T09:53:53.577Z,7.65
2018-11-28T09:56:22.483Z,7.64
2018-11-28T09:58:51.352Z,7.64
2018-11-28T10:01:21.678Z,7.51
2018-11-28T10:03:50.619Z,7.61
2018-11-28T10:06:19.503Z,7.71
2018-11-28T10:08:48.748Z,7.80
2018-11-28T10:11:17.655Z,7.78
2018-11-28T10:13:46.539Z,7.81
2018-11-28T10:16:16.020Z,7.76
2018-11-28T10:18:44.897Z,7.72
2018-11-28T10:21:20.066Z,7.72
2018-11-28T10:23:49.350Z,7.82
2018-11-28T10:26:24.891Z,7.98
2018-11-28T10:28:53.839Z,7.84
2018-11-28T10:31:26.708Z,8.04
2018-11-28T10:33:55.602Z,8.29
2018-11-28T10:36:24.515Z,8.46
2018-11-28T10:38:53.912Z,8.67
2018-11-28T10:41:22.841Z,9.03
2018-11-28T10:43:51.744Z,9.33
2018-11-28T10:46:21.097Z,9.47
2018-11-28T10:48:50.294Z,9.47
2018-11-28T10:51:19.171Z,9.84
2018-11-28T10:53:49.411Z,10.10
2018-11-28T10:56:18.404Z,10.01
2018-11-28T10:58:47.477Z,10.09
2018-11-28T11:01:22.645Z,10.05
2018-11-28T11:04:04.822Z,10.01
2018-11-28T11:06:39.014Z,9.88
2018-11-28T11:09:14.498Z,9.96
2018-11-28T11:11:48.940Z,10.26
2018-11-28T11:14:28.401Z,10.31
2018-11-28T11:16:57.642Z,10.81
2018-11-28T11:19:27.592Z,10.78
2018-11-28T11:21:56.590Z,10.55
2018-11-28T11:24:25.839Z,10.59
2018-11-28T11:26:54.732Z,10.53
2018-11-28T11:29:23.572Z,10.48
2018-11-28T11:31:52.873Z,10.35
2018-11-28T11:34:21.791Z,10.32
2018-11-28T11:36:50.622Z,10.48
2018-11-28T11:39:22.760Z,10.60
2018-11-28T11:41:51.627Z,10.66
2018-11-28T11:44:20.494Z,10.34
2018-11-28T11:49:29.270Z,10.12
2018-11-28T11:51:58.595Z,10.23
2018-11-28T11:54:27.560Z,10.12
2018-11-28T11:57:02.725Z,9.90
2018-11-28T11:59:31.512Z,9.91
2018-11-28T12:02:00.482Z,9.83
2018-11-28T12:04:29.678Z,9.67
2018-11-28T12:06:58.632Z,9.73
2018-11-28T12:09:27.497Z,9.70
2018-11-28T12:11:56.672Z,9.72
2018-11-28T12:14:25.535Z,9.56
2018-11-28T12:16:54.501Z,9.28
2018-11-28T12:19:23.837Z,9.29
2018-11-28T12:21:52.799Z,9.35
2018-11-28T12:24:21.650Z,9.32
2018-11-28T12:26:50.897Z,9.19
2018-11-28T12:29:19.790Z,9.29
2018-11-28T12:31:48.693Z,9.18
2018-11-28T12:36:51.478Z,9.11
2018-11-28T12:41:49.271Z,9.16
2018-11-28T12:44:18.103Z,9.11
2018-11-28T12:46:48.158Z,9.08
2018-11-28T12:49:17.641Z,9.23
2018-11-28T12:51:46.506Z,9.20
2018-11-28T12:54:15.457Z,9.33
2018-11-28T12:56:45.124Z,9.36
2018-11-28T12:59:14.303Z,9.51
2018-11-28T13:01:48.515Z,9.41
2018-11-28T13:04:17.376Z,9.46
2018-11-28T13:06:46.313Z,9.56
2018-11-28T13:09:15.131Z,9.44
2018-11-28T13:11:44.109Z,9.42
2018-11-28T13:14:13.282Z,9.48
2018-11-28T13:16:42.366Z,9.61
2018-11-28T13:19:11.195Z,9.57
2018-11-28T13:21:44.261Z,9.62
2018-11-28T13:24:13.148Z,9.62
2018-11-28T13:26:42.003Z,9.39
2018-11-28T13:29:11.233Z,9.50
2018-11-28T13:31:40.131Z,9.52
2018-11-28T13:34:09.064Z,9.38
2018-11-28T13:36:38.297Z,9.51
2018-11-28T13:39:08.026Z,9.47
2018-11-28T13:41:48.079Z,9.24
2018-11-28T13:44:17.279Z,9.15
2018-11-28T13:46:46.221Z,9.25
2018-11-28T13:49:15.424Z,9.27
2018-11-28T13:51:44.590Z,9.30
2018-11-28T13:54:21.212Z,9.19
2018-11-28T13:56:59.761Z,9.19
2018-11-28T13:59:11.286Z,9.35
2018-11-28T14:01:40.164Z,9.24
2018-11-28T14:04:09.255Z,9.28
2018-11-28T14:06:38.112Z,9.34
2018-11-28T14:09:08.467Z,9.27
2018-11-28T14:11:37.668Z,9.23
2018-11-28T14:14:06.622Z,9.28
2018-11-28T14:16:35.464Z,9.30
2018-11-28T14:19:04.710Z,9.26
2018-11-28T14:21:33.619Z,9.17
2018-11-28T14:24:05.705Z,9.09
2018-11-28T14:26:34.574Z,9.23
2018-11-28T14:29:03.503Z,9.23
2018-11-28T14:31:32.644Z,9.11
2018-11-28T14:34:04.303Z,9.22
2018-11-28T14:36:33.198Z,9.41
2018-11-28T14:39:02.153Z,9.28
2018-11-28T14:41:31.001Z,9.26
2018-11-28T14:44:00.172Z,9.18
2018-11-28T14:46:29.047Z,9.09
2018-11-28T14:48:57.914Z,9.03
2018-11-28T14:51:26.794Z,8.95
2018-11-28T14:53:55.640Z,9.03
2018-11-28T14:56:24.460Z,8.94
2018-11-28T14:58:53.627Z,8.91
2018-11-28T15:01:22.509Z,8.94
2018-11-28T15:03:51.746Z,8.93
2018-11-28T15:06:24.811Z,8.94
2018-11-28T15:09:04.969Z,9.03
2018-11-28T15:11:34.264Z,9.08
2018-11-28T15:14:07.095Z,8.98
2018-11-28T15:16:36.006Z,8.95
2018-11-28T15:19:06.299Z,8.94
2018-11-28T15:21:34.154Z,8.99
2018-11-28T15:24:03.704Z,9.00
2018-11-28T15:26:33.888Z,8.82
2018-11-28T15:29:07.171Z,8.83
2018-11-28T15:31:36.123Z,8.94
2018-11-28T15:34:06.396Z,8.77
2018-11-28T15:36:36.216Z,8.72
2018-11-28T15:39:08.116Z,8.84
2018-11-28T15:41:39.186Z,8.76
2018-11-28T15:44:08.167Z,8.69
2018-11-28T15:46:37.067Z,8.66
2018-11-28T15:49:07.676Z,8.70
2018-11-28T15:51:36.839Z,8.71
2018-11-28T15:54:06.548Z,8.83
2018-11-28T15:56:36.458Z,8.75
2018-11-28T15:59:06.512Z,8.60
2018-11-28T16:01:35.465Z,8.69
2018-11-28T16:04:05.076Z,8.84
2018-11-28T16:06:34.264Z,8.81
2018-11-28T16:09:05.418Z,8.67
2018-11-28T16:11:35.109Z,8.63
2018-11-28T16:14:04.891Z,8.61
2018-11-28T16:16:33.735Z,8.55
2018-11-28T16:19:03.136Z,8.62
2018-11-28T16:21:32.332Z,8.64
2018-11-28T16:24:01.276Z,8.62
2018-11-28T16:26:30.724Z,8.64
2018-11-28T16:28:59.952Z,8.62
2018-11-28T16:31:28.842Z,8.66
2018-11-28T16:33:57.882Z,8.67
2018-11-28T16:36:26.804Z,8.84
2018-11-28T16:38:55.664Z,8.79
2018-11-28T16:41:24.927Z,8.82
2018-11-28T16:43:53.784Z,8.73
2018-11-28T16:46:23.303Z,8.58
2018-11-28T16:48:52.600Z,8.62
2018-11-28T16:51:21.423Z,8.74
2018-11-28T16:53:50.477Z,8.64
2018-11-28T16:56:19.797Z,8.66
2018-11-28T16:58:48.627Z,8.73
2018-11-28T17:01:22.472Z,8.57
2018-11-28T17:03:52.994Z,8.54
2018-11-28T17:06:21.825Z,8.58
2018-11-28T17:08:50.717Z,8.58
2018-11-28T17:11:19.855Z,8.56
2018-11-28T17:13:54.526Z,8.66
2018-11-28T17:16:24.129Z,8.65
2018-11-28T17:19:02.403Z,8.54
2018-11-28T17:21:31.593Z,8.53
2018-11-28T17:24:02.784Z,8.54
2018-11-28T17:26:32.524Z,8.52
2018-11-28T17:29:05.586Z,8.64
2018-11-28T17:31:40.672Z,8.56
2018-11-28T17:34:09.581Z,8.54
2018-11-28T17:36:38.560Z,8.54
2018-11-28T17:39:12.108Z,8.61
2018-11-28T17:41:44.384Z,8.50
2018-11-28T17:44:13.754Z,8.40
2018-11-28T17:46:42.666Z,8.47
2018-11-28T17:49:11.765Z,8.45
2018-11-28T17:51:40.995Z,8.72
2018-11-28T17:54:09.883Z,8.43
2018-11-28T17:56:39.253Z,8.49
2018-11-28T17:59:08.542Z,8.45
2018-11-28T18:01:37.452Z,8.66
2018-11-28T18:04:12.020Z,8.54
2018-11-28T18:06:42.765Z,8.56
2018-11-28T18:09:12.851Z,8.39
2018-11-28T18:11:41.803Z,8.40
2018-11-28T18:14:11.047Z,8.48
2018-11-28T18:16:47.002Z,8.49
2018-11-28T18:19:15.973Z,8.66
2018-11-28T18:21:45.126Z,8.47
2018-11-28T18:24:14.065Z,8.44
2018-11-28T18:26:43.257Z,8.40
2018-11-28T18:29:12.213Z,8.45
2018-11-28T18:31:41.291Z,8.60
2018-11-28T18:34:10.647Z,8.60
2018-11-28T18:36:39.631Z,8.56
2018-11-28T18:39:09.619Z,8.43
2018-11-28T18:41:55.169Z,8.59
2018-11-28T18:44:27.500Z,8.49
2018-11-28T18:46:56.489Z,8.45
2018-11-28T18:49:26.244Z,8.48
2018-11-28T18:51:55.441Z,8.64
2018-11-28T18:54:24.390Z,8.55
2018-11-28T18:56:54.405Z,8.60
2018-11-28T18:59:23.788Z,8.54
2018-11-28T19:01:54.128Z,8.51
2018-11-28T19:04:23.656Z,8.56
2018-11-28T19:06:54.956Z,8.54
2018-11-28T19:09:29.888Z,8.62
2018-11-28T19:12:05.110Z,8.57
2018-11-28T19:14:35.006Z,8.58
2018-11-28T19:17:04.777Z,8.59
2018-11-28T19:19:34.392Z,8.70
2018-11-28T19:22:05.304Z,8.48
2018-11-28T19:24:34.799Z,8.56
2018-11-28T19:27:05.339Z,8.42
2018-11-28T19:29:34.828Z,8.43
2018-11-28T19:34:39.844Z,8.51
2018-11-28T19:37:09.379Z,8.35
2018-11-28T19:39:38.940Z,8.42
2018-11-28T19:42:08.442Z,8.41
2018-11-28T19:44:38.245Z,8.45
2018-11-28T19:47:07.327Z,8.33
2018-11-28T19:49:51.287Z,8.30
2018-11-28T19:52:23.655Z,8.38
2018-11-28T19:54:52.812Z,8.44
2018-11-28T19:57:22.437Z,8.30
2018-11-28T19:59:51.708Z,8.33
2018-11-28T20:02:21.220Z,8.40
2018-11-28T20:04:50.826Z,8.21
2018-11-28T20:07:19.950Z,8.14
2018-11-28T20:09:53.745Z,8.13
2018-11-28T20:12:26.162Z,8.16
2018-11-28T20:14:55.436Z,8.21
2018-11-28T20:17:24.441Z,8.11
2018-11-28T20:19:54.107Z,8.12
2018-11-28T20:22:23.602Z,8.08
2018-11-28T20:24:53.586Z,8.06
2018-11-28T20:27:23.752Z,8.01
2018-11-28T20:29:53.665Z,8.03
2018-11-28T20:32:23.005Z,7.98
2018-11-28T20:34:52.434Z,8.02
2018-11-28T20:37:21.363Z,7.91
2018-11-28T20:39:50.453Z,7.85
2018-11-28T20:42:19.903Z,7.78
2018-11-28T20:44:48.896Z,7.88
2018-11-28T20:47:18.099Z,7.68
2018-11-28T20:49:47.431Z,7.64
2018-11-28T20:52:16.420Z,7.63
2018-11-28T20:54:45.315Z,7.61
2018-11-28T20:59:54.536Z,7.61
2018-11-28T21:02:23.783Z,7.62
2018-11-28T21:04:52.820Z,7.66
2018-11-28T21:07:21.709Z,7.74
2018-11-28T21:09:57.155Z,7.60
2018-11-28T21:12:26.027Z,7.67
2018-11-28T21:14:55.078Z,7.60
2018-11-28T21:17:25.784Z,7.57
2018-11-28T21:19:54.903Z,7.59
2018-11-28T21:22:25.059Z,7.59
2018-11-28T21:24:53.956Z,7.56
2018-11-28T21:27:29.473Z,7.60
2018-11-28T21:29:57.694Z,7.72
2018-11-28T21:32:26.688Z,7.81
2018-11-28T21:34:55.584Z,7.72
2018-11-28T21:37:29.304Z,7.62
2018-11-28T21:39:58.180Z,7.51
2018-11-28T21:42:28.277Z,7.39
2018-11-28T21:44:57.182Z,7.41
2018-11-28T21:47:31.556Z,7.51
2018-11-28T21:50:00.538Z,7.53
2018-11-28T21:52:29.420Z,7.54
2018-11-28T21:54:58.578Z,7.55
2018-11-28T21:57:27.412Z,7.60
2018-11-28T21:59:56.307Z,7.55
2018-11-28T22:02:25.471Z,7.56
2018-11-28T22:04:54.278Z,7.52
2018-11-28T22:07:23.162Z,7.60
2018-11-28T22:09:52.348Z,7.52
2018-11-28T22:12:21.346Z,7.62
2018-11-28T22:14:51.434Z,7.56
2018-11-28T22:20:04.476Z,7.50
2018-11-28T22:22:34.294Z,7.39
2018-11-28T22:25:03.169Z,7.28
2018-11-28T22:27:32.037Z,7.31
2018-11-28T22:30:00.912Z,7.30
2018-11-28T22:32:29.906Z,7.33
2018-11-28T22:35:07.851Z,7.42
2018-11-28T22:37:36.731Z,7.36
2018-11-28T22:40:16.559Z,7.25
2018-11-28T22:42:56.183Z,7.22
2018-11-28T22:45:27.493Z,7.17
2018-11-28T22:47:56.333Z,7.18
2018-11-28T22:50:25.207Z,7.17
2018-11-28T22:53:01.196Z,7.19
2018-11-28T22:55:30.134Z,7.20
2018-11-28T22:57:59.009Z,7.21
2018-11-28T23:00:33.344Z,7.30
2018-11-28T23:03:08.542Z,7.37
2018-11-28T23:05:41.813Z,7.28
2018-11-28T23:08:11.571Z,7.28
2018-11-28T23:10:40.514Z,7.27
2018-11-28T23:13:16.859Z,7.27
2018-11-28T23:15:45.815Z,7.24
2018-11-28T23:18:14.760Z,7.21
2018-11-28T23:20:44.047Z,7.18
2018-11-28T23:23:12.931Z,7.17
2018-11-28T23:25:41.809Z,7.28
2018-11-28T23:28:10.927Z,7.22
2018-11-28T23:30:41.947Z,7.09
2018-11-28T23:33:15.966Z,7.10
2018-11-28T23:35:40.267Z,7.21
2018-11-28T23:38:09.334Z,7.20
2018-11-28T23:40:38.197Z,7.12
2018-11-28T23:43:07.477Z,7.22
2018-11-28T23:45:36.339Z,7.15
2018-11-28T23:48:06.117Z,6.98
2018-11-28T23:50:34.999Z,6.98
2018-11-28T23:53:04.536Z,7.03
2018-11-28T23:55:33.727Z,7.01
2018-11-28T23:58:03.329Z,7.04
